Lanark Village, Florida
Current Conditions -  °F | °C
As of 2:53 AM on Saturday 29 Nov 2014 (Local Time) from KAAF Reporting Station
Clear Clear  
Wind Chill: 40°   Ceiling: Unl
Heat Index: 40°   Visibility: 10mi
Dew Point: 34°   Wind: 3mph
Humidity: 79%   Direction: 10°N
Pressure: 30.28"   Gusts: NA
Location:  29.88°N, 84.6°W
Report Text: KAAF 290753Z AUTO 01003KT 10SM CLR 04/01 A3028 RMK AO2 SLP254 T00440011 TSNO
Loading
Personal Weather Stations






























Interactive Weather Map New forecast layout! Learn more

10-Day Weather Forecast

Advertisements
Track Severe Weather on mobile